createdAt,value
2022-11-26T00:02:26.260Z,1.70
2022-11-26T00:04:54.738Z,1.83
2022-11-26T00:07:26.778Z,1.87
2022-11-26T00:09:55.125Z,1.37
2022-11-26T00:12:24.084Z,1.73
2022-11-26T00:14:51.692Z,1.35
2022-11-26T00:17:19.485Z,1.35
2022-11-26T00:19:47.154Z,1.37
2022-11-26T00:22:26.464Z,1.70
2022-11-26T00:24:54.476Z,1.95
2022-11-26T00:27:22.287Z,1.80
2022-11-26T00:29:49.166Z,1.55
2022-11-26T00:32:24.765Z,1.40
2022-11-26T00:34:52.687Z,1.42
2022-11-26T00:37:42.375Z,1.70
2022-11-26T00:40:23.892Z,1.50
2022-11-26T00:42:52.033Z,1.10
2022-11-26T00:45:22.849Z,1.65
2022-11-26T00:47:50.932Z,1.30
2022-11-26T00:50:23.695Z,1.65
2022-11-26T00:52:53.878Z,1.20
2022-11-26T00:55:34.628Z,1.10
2022-11-26T00:58:02.196Z,1.62
2022-11-26T01:00:32.850Z,2.00
2022-11-26T01:02:59.808Z,1.52
2022-11-26T01:05:33.540Z,1.35
2022-11-26T01:08:06.621Z,1.90
2022-11-26T01:10:33.594Z,1.60
2022-11-26T01:13:00.497Z,1.48
2022-11-26T01:15:29.119Z,2.17
2022-11-26T01:17:56.137Z,1.65
2022-11-26T01:20:29.547Z,1.52
2022-11-26T01:22:58.697Z,2.47
2022-11-26T01:25:27.019Z,1.90
2022-11-26T01:27:54.550Z,1.60
2022-11-26T01:30:27.749Z,2.20
2022-11-26T01:32:54.854Z,2.40
2022-11-26T01:35:22.419Z,2.50
2022-11-26T01:37:49.962Z,2.05
2022-11-26T01:40:26.186Z,1.98
2022-11-26T01:42:58.999Z,1.62
2022-11-26T01:45:26.054Z,2.08
2022-11-26T01:47:53.026Z,1.67
2022-11-26T01:50:29.061Z,2.78
2022-11-26T01:53:04.476Z,1.80
2022-11-26T01:55:41.764Z,2.10
2022-11-26T01:58:11.499Z,2.10
2022-11-26T02:00:38.691Z,1.65
2022-11-26T02:03:06.356Z,2.10
2022-11-26T02:05:44.296Z,2.60
2022-11-26T02:08:12.413Z,2.10
2022-11-26T02:10:39.385Z,1.77
2022-11-26T02:13:06.561Z,1.70
2022-11-26T02:15:47.102Z,1.90
2022-11-26T02:18:15.052Z,2.12
2022-11-26T02:21:00.696Z,2.10
2022-11-26T02:23:39.369Z,2.67
2022-11-26T02:26:45.894Z,2.35
2022-11-26T02:29:15.537Z,2.03
2022-11-26T02:31:51.709Z,2.28
2022-11-26T02:34:22.748Z,2.25
2022-11-26T02:37:01.204Z,2.28
2022-11-26T02:39:30.495Z,2.20
2022-11-26T02:42:00.721Z,2.70
2022-11-26T02:44:48.254Z,2.17
2022-11-26T02:47:18.624Z,2.65
2022-11-26T02:49:47.904Z,2.78
2022-11-26T02:52:16.631Z,2.70
2022-11-26T02:54:45.411Z,3.83
2022-11-26T02:57:15.783Z,3.70
2022-11-26T02:59:43.071Z,2.80
2022-11-26T03:02:32.877Z,2.55
2022-11-26T03:05:02.521Z,2.45
2022-11-26T03:07:31.159Z,2.53
2022-11-26T03:10:01.047Z,2.97
2022-11-26T03:12:29.030Z,2.85
2022-11-26T03:14:56.074Z,3.22
2022-11-26T03:17:23.122Z,3.92
2022-11-26T03:19:50.464Z,2.83
2022-11-26T03:22:17.567Z,3.03
2022-11-26T03:24:44.590Z,3.17
2022-11-26T03:27:11.529Z,2.70
2022-11-26T03:29:38.525Z,2.80
2022-11-26T03:32:06.284Z,2.45
2022-11-26T03:34:33.377Z,3.05
2022-11-26T03:37:00.271Z,2.92
2022-11-26T03:39:27.214Z,2.60
2022-11-26T03:41:54.074Z,2.87
2022-11-26T03:44:21.195Z,3.03
2022-11-26T03:46:48.104Z,2.67
2022-11-26T03:49:15.232Z,2.78
2022-11-26T03:51:42.145Z,2.97
2022-11-26T03:54:10.065Z,2.95
2022-11-26T03:56:37.194Z,2.47
2022-11-26T03:59:04.254Z,3.37
2022-11-26T04:01:31.490Z,2.58
2022-11-26T04:03:58.531Z,2.85
2022-11-26T04:06:25.835Z,3.05
2022-11-26T04:08:52.753Z,2.70
2022-11-26T04:11:20.076Z,2.45
2022-11-26T04:13:47.035Z,2.92
2022-11-26T04:16:14.239Z,1.90
2022-11-26T04:18:41.272Z,2.42
2022-11-26T04:21:08.972Z,3.15
2022-11-26T04:23:36.805Z,2.47
2022-11-26T04:26:04.503Z,3.65
2022-11-26T04:28:31.586Z,2.70
2022-11-26T04:30:58.508Z,2.20
2022-11-26T04:33:27.248Z,2.30
2022-11-26T04:35:54.683Z,2.65
2022-11-26T04:38:25.739Z,2.40
2022-11-26T04:40:53.101Z,3.05
2022-11-26T04:43:20.009Z,2.35
2022-11-26T04:45:47.086Z,2.80
2022-11-26T04:48:14.202Z,2.50
2022-11-26T04:50:41.108Z,2.50
2022-11-26T04:53:08.322Z,2.40
2022-11-26T04:55:35.221Z,2.40
2022-11-26T04:58:02.142Z,2.65
2022-11-26T05:00:29.140Z,3.08
2022-11-26T05:02:56.094Z,2.62
2022-11-26T05:05:23.104Z,3.08
2022-11-26T05:07:50.081Z,3.05
2022-11-26T05:10:17.087Z,2.85
2022-11-26T05:12:43.994Z,3.30
2022-11-26T05:15:11.247Z,2.67
2022-11-26T05:17:38.194Z,2.80
2022-11-26T05:20:06.181Z,3.92
2022-11-26T05:22:33.141Z,3.80
2022-11-26T05:25:00.018Z,4.00
2022-11-26T05:27:27.075Z,4.00
2022-11-26T05:29:54.019Z,3.05
2022-11-26T05:32:20.964Z,4.62
2022-11-26T05:34:47.909Z,3.95
2022-11-26T05:37:14.884Z,3.85
2022-11-26T05:39:41.974Z,4.03
2022-11-26T05:42:09.636Z,4.90
2022-11-26T05:44:37.807Z,4.62
2022-11-26T05:47:05.159Z,3.33
2022-11-26T05:49:32.413Z,4.10
2022-11-26T05:51:59.735Z,3.60
2022-11-26T05:54:26.699Z,3.33
2022-11-26T05:56:58.625Z,3.47
2022-11-26T05:59:27.627Z,3.85
2022-11-26T06:01:54.569Z,3.78
2022-11-26T06:04:21.509Z,4.28
2022-11-26T06:06:48.416Z,4.90
2022-11-26T06:09:15.340Z,3.58
2022-11-26T06:11:42.229Z,3.10
2022-11-26T06:14:10.595Z,3.00
2022-11-26T06:16:37.665Z,3.50
2022-11-26T06:19:04.721Z,3.83
2022-11-26T06:21:31.651Z,2.97
2022-11-26T06:23:59.716Z,3.95
2022-11-26T06:26:26.979Z,4.12
2022-11-26T06:28:54.171Z,3.55
2022-11-26T06:31:21.199Z,3.70
2022-11-26T06:33:48.172Z,4.50
2022-11-26T06:36:15.096Z,3.90
2022-11-26T06:38:42.269Z,4.65
2022-11-26T06:41:09.634Z,3.83
2022-11-26T06:43:37.260Z,3.53
2022-11-26T06:46:09.427Z,4.43
2022-11-26T06:48:37.238Z,3.50
2022-11-26T06:51:10.720Z,4.07
2022-11-26T06:53:38.586Z,3.78
2022-11-26T06:56:14.850Z,2.80
2022-11-26T06:58:46.641Z,3.78
2022-11-26T07:01:19.537Z,3.53
2022-11-26T07:03:47.096Z,4.03
2022-11-26T07:06:17.513Z,3.17
2022-11-26T07:08:45.144Z,3.58
2022-11-26T07:11:12.539Z,4.12
2022-11-26T07:13:40.227Z,3.83
2022-11-26T07:16:07.817Z,3.47
2022-11-26T07:18:35.062Z,3.50
2022-11-26T07:21:10.324Z,3.62
2022-11-26T07:23:37.825Z,4.53
2022-11-26T07:26:06.153Z,3.17
2022-11-26T07:28:34.389Z,4.18
2022-11-26T07:31:03.075Z,4.68
2022-11-26T07:33:30.102Z,3.90
2022-11-26T07:36:01.146Z,3.20
2022-11-26T07:38:29.355Z,4.22
2022-11-26T07:41:02.140Z,3.25
2022-11-26T07:43:29.284Z,4.35
2022-11-26T07:45:56.385Z,4.18
2022-11-26T07:48:23.384Z,3.10
2022-11-26T07:50:50.355Z,3.35
2022-11-26T07:53:17.301Z,4.32
2022-11-26T07:55:44.276Z,3.70
2022-11-26T07:58:11.213Z,3.62
2022-11-26T08:00:38.151Z,3.67
2022-11-26T08:03:05.119Z,3.62
2022-11-26T08:05:32.056Z,3.62
2022-11-26T08:07:59.023Z,2.95
2022-11-26T08:10:26.123Z,3.17
2022-11-26T08:12:53.053Z,3.37
2022-11-26T08:15:19.996Z,4.47
2022-11-26T08:17:47.000Z,3.87
2022-11-26T08:20:14.481Z,4.37
2022-11-26T08:22:41.518Z,3.90
2022-11-26T08:25:09.333Z,3.70
2022-11-26T08:27:36.271Z,3.87
2022-11-26T08:30:03.915Z,3.53
2022-11-26T08:32:30.947Z,3.33
2022-11-26T08:34:58.174Z,4.05
2022-11-26T08:37:25.142Z,3.65
2022-11-26T08:39:52.132Z,3.05
2022-11-26T08:42:19.250Z,4.05
2022-11-26T08:44:46.159Z,3.45
2022-11-26T08:47:13.115Z,3.45
2022-11-26T08:49:40.229Z,4.53
2022-11-26T08:52:07.542Z,4.45
2022-11-26T08:54:34.513Z,3.75
2022-11-26T08:57:01.493Z,3.75
2022-11-26T08:59:28.443Z,4.93
2022-11-26T09:01:55.410Z,3.87
2022-11-26T09:04:22.490Z,3.40
2022-11-26T09:06:49.457Z,4.03
2022-11-26T09:09:17.998Z,3.80
2022-11-26T09:11:49.101Z,3.20
2022-11-26T09:14:21.830Z,4.97
2022-11-26T09:16:48.981Z,3.97
2022-11-26T09:19:16.692Z,3.80
2022-11-26T09:21:44.542Z,3.90
2022-11-26T09:24:12.453Z,4.00
2022-11-26T09:26:39.699Z,3.55
2022-11-26T09:29:06.667Z,4.47
2022-11-26T09:31:33.948Z,4.30
2022-11-26T09:34:02.559Z,3.30
2022-11-26T09:36:29.931Z,3.17
2022-11-26T09:38:58.597Z,3.47
2022-11-26T09:41:48.916Z,4.37
2022-11-26T09:44:33.701Z,5.10
2022-11-26T09:47:12.821Z,3.83
2022-11-26T09:50:08.314Z,3.62
2022-11-26T09:52:58.969Z,6.03
2022-11-26T09:55:35.236Z,3.30
2022-11-26T09:58:53.541Z,2.92
2022-11-26T10:01:23.211Z,3.40
2022-11-26T10:03:51.396Z,3.15
2022-11-26T10:06:24.623Z,3.15
2022-11-26T10:09:18.981Z,4.00
2022-11-26T10:12:25.598Z,3.37
2022-11-26T10:15:18.674Z,2.67
2022-11-26T10:18:13.160Z,3.15
2022-11-26T10:20:55.702Z,3.70
2022-11-26T10:23:31.940Z,4.05
2022-11-26T10:26:07.596Z,4.15
2022-11-26T10:28:44.600Z,3.10
2022-11-26T10:31:42.031Z,3.78
2022-11-26T10:34:29.836Z,3.85
2022-11-26T10:36:58.334Z,4.07
2022-11-26T10:39:25.275Z,5.93
2022-11-26T10:41:52.208Z,3.75
2022-11-26T10:44:37.132Z,4.47
2022-11-26T10:47:29.073Z,4.50
2022-11-26T10:50:14.252Z,3.28
2022-11-26T10:52:51.648Z,3.22
2022-11-26T10:55:38.602Z,4.00
2022-11-26T10:58:13.687Z,3.85
2022-11-26T11:00:46.008Z,3.53
2022-11-26T11:03:38.555Z,3.87
2022-11-26T11:06:25.517Z,5.43
2022-11-26T11:08:54.002Z,4.20
2022-11-26T11:11:31.597Z,4.03
2022-11-26T11:13:58.746Z,3.62
2022-11-26T11:16:39.756Z,3.90
2022-11-26T11:19:22.854Z,4.00
2022-11-26T11:21:49.815Z,2.97
2022-11-26T11:24:28.503Z,5.00
2022-11-26T11:27:00.391Z,4.03
2022-11-26T11:29:30.200Z,3.35
2022-11-26T11:31:57.932Z,3.53
2022-11-26T11:34:35.181Z,3.65
2022-11-26T11:37:16.951Z,4.03
2022-11-26T11:39:44.377Z,3.22
2022-11-26T11:42:29.790Z,4.18
2022-11-26T11:44:58.348Z,2.87
2022-11-26T11:47:48.485Z,2.70
2022-11-26T11:50:34.778Z,2.85
2022-11-26T11:53:15.509Z,3.10
2022-11-26T11:55:48.144Z,3.62
2022-11-26T11:58:38.524Z,3.00
2022-11-26T12:01:17.492Z,3.20
2022-11-26T12:04:09.175Z,3.25
2022-11-26T12:07:01.811Z,2.97
2022-11-26T12:09:34.739Z,3.72
2022-11-26T12:12:21.455Z,2.75
2022-11-26T12:14:53.409Z,3.40
2022-11-26T12:17:39.795Z,3.45
2022-11-26T12:20:34.677Z,3.28
2022-11-26T12:23:37.221Z,3.22
2022-11-26T12:26:12.248Z,3.83
2022-11-26T12:28:51.736Z,3.15
2022-11-26T12:31:48.964Z,2.92
2022-11-26T12:34:22.019Z,3.10
2022-11-26T12:37:05.594Z,2.87
2022-11-26T12:39:53.876Z,2.83
2022-11-26T12:42:45.940Z,2.85
2022-11-26T12:45:38.708Z,2.12
2022-11-26T12:48:43.220Z,2.20
2022-11-26T12:51:34.396Z,2.85
2022-11-26T12:54:18.718Z,2.28
2022-11-26T12:56:48.408Z,2.17
2022-11-26T12:59:26.819Z,2.90
2022-11-26T13:01:53.955Z,2.35
2022-11-26T13:04:49.220Z,2.08
2022-11-26T13:07:37.521Z,2.78
2022-11-26T13:10:04.554Z,2.60
2022-11-26T13:12:37.540Z,2.40
2022-11-26T13:15:33.345Z,2.55
2022-11-26T13:18:01.308Z,2.92
2022-11-26T13:21:02.467Z,2.45
2022-11-26T13:24:00.372Z,3.50
2022-11-26T13:26:53.354Z,2.25
2022-11-26T13:29:35.939Z,3.05
2022-11-26T13:33:02.366Z,2.42
2022-11-26T13:35:31.858Z,2.85
2022-11-26T13:38:22.945Z,2.65
2022-11-26T13:41:26.625Z,2.40
2022-11-26T13:44:08.848Z,2.15
2022-11-26T13:46:54.677Z,2.35
2022-11-26T13:49:39.805Z,2.47
2022-11-26T13:52:12.129Z,2.22
2022-11-26T13:54:55.730Z,2.40
2022-11-26T13:57:28.398Z,2.70
2022-11-26T13:59:57.065Z,2.47
2022-11-26T14:02:33.176Z,2.50
2022-11-26T14:05:01.878Z,2.20
2022-11-26T14:07:28.961Z,2.55
2022-11-26T14:09:58.142Z,2.90
2022-11-26T14:13:03.462Z,2.20
2022-11-26T14:15:42.850Z,2.03
2022-11-26T14:18:11.153Z,2.20
2022-11-26T14:20:56.972Z,2.15
2022-11-26T14:23:43.701Z,2.50
2022-11-26T14:26:31.008Z,2.78
2022-11-26T14:29:10.056Z,2.37
2022-11-26T14:31:42.108Z,2.62
2022-11-26T14:34:20.836Z,2.45
2022-11-26T14:36:59.242Z,2.58
2022-11-26T14:39:27.575Z,2.92
2022-11-26T14:42:05.186Z,2.90
2022-11-26T14:44:33.255Z,2.55
2022-11-26T14:47:09.533Z,3.12
2022-11-26T14:49:39.425Z,2.62
2022-11-26T14:52:34.830Z,2.60
2022-11-26T14:55:06.650Z,3.15
2022-11-26T14:57:40.873Z,2.62
2022-11-26T15:00:23.227Z,2.90
2022-11-26T15:02:50.754Z,3.30
2022-11-26T15:05:32.682Z,2.67
2022-11-26T15:08:06.686Z,3.03
2022-11-26T15:10:40.566Z,2.97
2022-11-26T15:13:14.133Z,2.65
2022-11-26T15:15:52.326Z,3.75
2022-11-26T15:18:22.598Z,2.85
2022-11-26T15:20:53.522Z,2.75
2022-11-26T15:23:28.211Z,3.05
2022-11-26T15:25:55.759Z,3.00
2022-11-26T15:28:23.442Z,2.80
2022-11-26T15:31:01.709Z,3.28
2022-11-26T15:33:31.855Z,3.62
2022-11-26T15:35:59.270Z,3.17
2022-11-26T15:38:31.664Z,3.65
2022-11-26T15:41:14.253Z,2.95
2022-11-26T15:43:51.931Z,3.20
2022-11-26T15:46:26.241Z,3.92
2022-11-26T15:49:05.699Z,4.07
2022-11-26T15:51:43.407Z,4.03
2022-11-26T15:54:49.665Z,4.32
2022-11-26T15:57:30.302Z,3.45
2022-11-26T16:00:05.875Z,3.53
2022-11-26T16:02:33.441Z,3.62
2022-11-26T16:05:01.992Z,3.90
2022-11-26T16:07:31.294Z,3.97
2022-11-26T16:10:16.423Z,4.18
2022-11-26T16:12:45.060Z,4.05
2022-11-26T16:15:18.364Z,5.03
2022-11-26T16:17:47.398Z,3.92
2022-11-26T16:20:27.965Z,3.87
2022-11-26T16:22:58.792Z,5.85
2022-11-26T16:25:27.418Z,3.50
2022-11-26T16:28:11.301Z,4.95
2022-11-26T16:30:40.509Z,5.12
2022-11-26T16:33:07.984Z,4.62
2022-11-26T16:35:50.422Z,3.70
2022-11-26T16:38:22.947Z,4.90
2022-11-26T16:40:50.695Z,4.53
2022-11-26T16:43:17.768Z,5.70
2022-11-26T16:45:45.612Z,4.80
2022-11-26T16:48:26.910Z,4.97
2022-11-26T16:50:57.009Z,4.82
2022-11-26T16:53:24.071Z,5.68
2022-11-26T16:55:52.565Z,5.28
2022-11-26T16:58:27.275Z,4.47
2022-11-26T17:00:55.413Z,6.30
2022-11-26T17:03:23.483Z,6.68
2022-11-26T17:05:54.139Z,5.75
2022-11-26T17:08:21.239Z,4.93
2022-11-26T17:10:48.295Z,4.70
2022-11-26T17:13:15.823Z,6.93
2022-11-26T17:15:43.878Z,6.60
2022-11-26T17:18:28.947Z,5.68
2022-11-26T17:20:55.893Z,5.45
2022-11-26T17:23:22.797Z,5.70
2022-11-26T17:25:52.674Z,6.60
2022-11-26T17:28:21.319Z,5.28
2022-11-26T17:30:48.303Z,5.32
2022-11-26T17:33:15.281Z,6.43
2022-11-26T17:35:42.333Z,4.95
2022-11-26T17:38:18.529Z,5.45
2022-11-26T17:40:46.468Z,5.12
2022-11-26T17:43:13.942Z,6.45
2022-11-26T17:45:41.557Z,4.65
2022-11-26T17:48:12.706Z,4.87
2022-11-26T17:50:40.385Z,5.25
2022-11-26T17:53:07.393Z,4.65
2022-11-26T17:55:34.496Z,5.12
2022-11-26T17:58:01.446Z,5.85
2022-11-26T18:00:29.546Z,6.07
2022-11-26T18:02:56.863Z,4.82
2022-11-26T18:05:24.594Z,6.35
2022-11-26T18:07:52.131Z,6.43
2022-11-26T18:10:20.641Z,6.18
2022-11-26T18:12:48.666Z,7.35
2022-11-26T18:15:20.491Z,6.20
2022-11-26T18:17:50.895Z,6.07
2022-11-26T18:20:19.769Z,6.37
2022-11-26T18:22:49.475Z,6.03
2022-11-26T18:25:16.382Z,6.12
2022-11-26T18:27:43.328Z,6.95
2022-11-26T18:30:10.582Z,6.40
2022-11-26T18:32:38.544Z,6.05
2022-11-26T18:35:06.691Z,7.15
2022-11-26T18:37:35.593Z,6.68
2022-11-26T18:40:02.569Z,6.62
2022-11-26T18:42:37.005Z,6.43
2022-11-26T18:45:06.425Z,6.30
2022-11-26T18:47:33.897Z,6.43
2022-11-26T18:50:00.798Z,6.05
2022-11-26T18:52:27.724Z,7.57
2022-11-26T18:54:54.675Z,5.90
2022-11-26T18:57:21.858Z,6.85
2022-11-26T18:59:50.621Z,6.90
2022-11-26T19:02:17.746Z,6.53
2022-11-26T19:04:44.829Z,6.18
2022-11-26T19:07:14.205Z,6.47
2022-11-26T19:09:42.381Z,7.10
2022-11-26T19:12:11.874Z,6.85
2022-11-26T19:14:39.018Z,6.53
2022-11-26T19:17:06.075Z,6.97
2022-11-26T19:19:33.272Z,6.97
2022-11-26T19:22:01.553Z,5.45
2022-11-26T19:24:30.127Z,6.68
2022-11-26T19:26:57.453Z,6.10
2022-11-26T19:29:24.452Z,6.35
2022-11-26T19:31:51.550Z,5.93
2022-11-26T19:34:18.519Z,6.35
2022-11-26T19:36:48.641Z,6.75
2022-11-26T19:39:16.714Z,6.75
2022-11-26T19:41:43.778Z,6.85
2022-11-26T19:44:10.637Z,7.18
2022-11-26T19:46:40.823Z,6.75
2022-11-26T19:49:12.052Z,6.75
2022-11-26T19:51:39.061Z,7.65
2022-11-26T19:54:06.857Z,5.97
2022-11-26T19:56:34.897Z,7.18
2022-11-26T19:59:02.388Z,6.97
2022-11-26T20:01:32.004Z,7.00
2022-11-26T20:04:01.343Z,6.80
2022-11-26T20:06:30.253Z,6.00
2022-11-26T20:09:01.063Z,8.15
2022-11-26T20:11:29.028Z,5.87
2022-11-26T20:13:56.987Z,6.57
2022-11-26T20:16:28.574Z,6.95
2022-11-26T20:18:56.346Z,6.28
2022-11-26T20:21:28.667Z,6.62
2022-11-26T20:23:59.087Z,6.97
2022-11-26T20:26:27.957Z,5.95
2022-11-26T20:28:59.652Z,6.30
2022-11-26T20:31:27.258Z,6.03
2022-11-26T20:33:55.323Z,5.28
2022-11-26T20:36:23.242Z,5.95
2022-11-26T20:38:55.206Z,5.87
2022-11-26T20:41:23.424Z,5.55
2022-11-26T20:43:56.607Z,5.97
2022-11-26T20:46:24.004Z,4.28
2022-11-26T20:48:51.006Z,5.57
2022-11-26T20:51:19.329Z,4.47
2022-11-26T20:53:46.646Z,4.28
2022-11-26T20:56:14.698Z,3.25
2022-11-26T20:58:42.001Z,4.25
2022-11-26T21:01:28.560Z,4.05
2022-11-26T21:03:56.111Z,3.85
2022-11-26T21:06:29.371Z,4.15
2022-11-26T21:08:59.826Z,3.28
2022-11-26T21:11:27.264Z,3.62
2022-11-26T21:13:54.264Z,3.42
2022-11-26T21:16:21.402Z,4.35
2022-11-26T21:18:48.321Z,3.08
2022-11-26T21:21:16.631Z,3.17
2022-11-26T21:23:44.625Z,3.28
2022-11-26T21:26:15.987Z,3.17
2022-11-26T21:28:42.970Z,3.12
2022-11-26T21:31:17.314Z,3.03
2022-11-26T21:33:46.083Z,3.87
2022-11-26T21:36:16.497Z,3.50
2022-11-26T21:38:47.336Z,4.05
2022-11-26T21:41:15.618Z,3.58
2022-11-26T21:43:44.074Z,4.30
2022-11-26T21:46:14.999Z,4.75
2022-11-26T21:48:41.982Z,4.40
2022-11-26T21:51:15.420Z,6.25
2022-11-26T21:53:42.815Z,5.45
2022-11-26T21:56:35.963Z,8.23
2022-11-26T21:59:03.002Z,6.47
2022-11-26T22:01:36.170Z,7.78
2022-11-26T22:04:10.663Z,7.60
2022-11-26T22:06:38.296Z,7.90
2022-11-26T22:09:05.880Z,8.43
2022-11-26T22:11:38.543Z,8.52
2022-11-26T22:14:06.534Z,8.63
2022-11-26T22:16:34.272Z,10.30
2022-11-26T22:19:02.046Z,9.80
2022-11-26T22:21:31.882Z,8.07
2022-11-26T22:24:00.237Z,8.70
2022-11-26T22:26:28.299Z,7.47
2022-11-26T22:28:55.788Z,9.00
2022-11-26T22:31:24.061Z,7.68
2022-11-26T22:33:55.729Z,8.75
2022-11-26T22:36:22.719Z,8.32
2022-11-26T22:38:49.653Z,7.45
2022-11-26T22:41:16.971Z,7.72
2022-11-26T22:43:44.080Z,8.05
2022-11-26T22:46:14.187Z,7.55
2022-11-26T22:48:42.067Z,8.15
2022-11-26T22:51:09.825Z,8.90
2022-11-26T22:53:37.959Z,7.60
2022-11-26T22:56:05.806Z,7.15
2022-11-26T22:58:34.610Z,6.95
2022-11-26T23:01:07.755Z,6.95
2022-11-26T23:03:37.149Z,7.50
2022-11-26T23:06:09.876Z,6.97
2022-11-26T23:08:37.715Z,6.85
2022-11-26T23:11:06.575Z,6.37
2022-11-26T23:13:33.643Z,5.97
2022-11-26T23:16:00.700Z,6.25
2022-11-26T23:18:27.832Z,5.80
2022-11-26T23:21:14.766Z,6.10
2022-11-26T23:23:42.534Z,5.05
2022-11-26T23:26:13.147Z,5.45
2022-11-26T23:28:40.062Z,4.60
2022-11-26T23:31:12.627Z,5.30
2022-11-26T23:33:39.808Z,4.70
2022-11-26T23:36:07.084Z,4.32
2022-11-26T23:38:35.083Z,5.15
2022-11-26T23:41:03.528Z,5.82
2022-11-26T23:43:32.584Z,4.75
2022-11-26T23:46:05.612Z,4.45
2022-11-26T23:48:33.488Z,4.10
2022-11-26T23:51:00.812Z,4.37
2022-11-26T23:53:27.730Z,4.75
2022-11-26T23:55:54.581Z,3.50
2022-11-26T23:58:21.492Z,3.37
